Station info - map view · info · telemetry · weather · raw · status · beacons · messages · bulletins · browse · moving · my account
Callsign, ship name or locator: Clear       
It is possible to search using wildcards (*?) after a prefix. Example: OH*
APRS station SP1FM - show graphs
Map loading...
Mic-E message: En route
Location: 54°09.78' N 15°27.12' E - locator JO74RD49FC - show map - static map
1.4 miles West bearing 282° from Grzybowo, Powiat kołobrzeski, West Pomeranian Voivodeship, Poland [?]
5.4 miles West bearing 261° from Kołobrzeg, Powiat kołobrzeski, West Pomeranian Voivodeship, Poland
29.2 miles West bearing 266° from Koszalin, Koszalin, West Pomeranian Voivodeship, Poland
62.6 miles Northeast bearing 36° from Szczecin, Szczecin, West Pomeranian Voivodeship, Poland
Last position: 2018-02-14 07:04:18 EST (9d 33m ago)
2018-02-14 13:04:18 CET local time at Grzybowo, Poland [?]
Altitude: 3 ft
Course: 138°
Device: Kenwood: TH-D72 (ht)
Last path: SP1FM>UT0Y78 via WIDE1-1,WIDE2-2,qAR,SP1KQR-10 (good)
Positions stored: 1734
Other SSIDs: SP1FM-10 SP1FM-5
Stations near current position of SP1FM - show more
callsign distance last heard - EST      callsign distance last heard - EST
SP1KQR-103.6 miles 75°2018-02-23 07:22:34 EL-SR1G4.2 miles 76°2018-02-23 07:28:31
SP1UJW-184.8 miles 77°2018-02-23 07:31:06 SP1UJW-94.9 miles 76°2018-02-23 04:43:15
SQ1GU5.5 miles 80°2018-02-17 08:14:43 SQ1PSD-45.6 miles 76°2018-02-17 12:16:31
N361044911.5 miles 229°2018-02-07 08:13:47 SP8IPJ-213.1 miles 73°2018-01-26 12:06:12
N4140553.15.6 miles 250°2018-02-15 08:06:21 N414055315.6 miles 249°2018-02-15 08:05:41
N073068917.7 miles 101°2018-01-26 23:45:14 SP1X-717.7 miles 101°2018-01-27 00:00:49
M173317618.6 miles 203°2018-01-25 02:25:25 SQ2ODE-120.5 miles 156°2018-02-19 15:02:38
M173317820.7 miles 159°2018-01-25 09:05:02 N361042821.4 miles 200°2018-02-06 20:14:56
SP1X-1022.8 miles 117°2018-02-22 01:06:06 SP1X-1522.8 miles 117°2018-02-06 05:59:31
N072043822.8 miles 117°2018-01-25 17:25:29 SP1X22.8 miles 117°2018-02-15 06:28:30
Stations which heard SP1FM directly on radio –
callsign pkts first heard - EST last heard longest (tx => rx) longest at - EST
DB0YQ 8 2018-02-10 10:19:55 2018-02-10 10:47:04 JN59RP > JN69CQ 36.5 miles 85° 2018-02-10 10:19:55
DB0LMM 3 2018-02-10 12:01:40 2018-02-10 12:23:41 JO51XB > JO61EI 26.4 miles 44° 2018-02-10 12:01:40
DB0VOX 8 2018-02-10 09:55:55 2018-02-10 10:19:27 JN59QO > JN59MK 19.5 miles 229° 2018-02-10 10:19:27
DB0RIE 1 2018-02-10 11:38:36 2018-02-10 11:38:36 JO50WR > JO50NV 33.5 miles 290° 2018-02-10 11:38:36
DB0REN 7 2018-02-10 11:07:42 2018-02-10 11:45:59 JO50WU > JO50RK 32.7 miles 214° 2018-02-10 11:45:59
DC7AP 3 2018-02-10 14:00:08 2018-02-10 14:06:07 JO62RH > JO62SF 6.9 miles 128° 2018-02-10 14:00:08
DB0LP 1 2018-02-10 09:18:47 2018-02-10 09:18:47 JN59OE > JN59UD 20.9 miles 99° 2018-02-10 09:18:47
DB0FUZ 1 2018-02-10 14:22:03 2018-02-10 14:22:03 JO62VL > JO62TK 7.8 miles 245° 2018-02-10 14:22:03
DB0LPZ 6 2018-02-10 12:03:40 2018-02-10 12:21:40 JO51XC > JO61FI 27.7 miles 53° 2018-02-10 12:03:40
DB0HDF 3 2018-02-10 11:48:01 2018-02-10 11:52:01 JO50WU > JO50WV 2.4 miles 5° 2018-02-10 11:48:01
DB0WOF-10 12 2018-02-10 12:25:41 2018-02-10 12:51:19 JO61CK > JO61DQ 14.8 miles 7° 2018-02-10 12:25:41
DB0MAK 1 2018-02-10 11:13:08 2018-02-10 11:13:08 JO50VG > JO60BA 24.0 miles 142° 2018-02-10 11:13:08
DB0ERZ 7 2018-02-10 11:07:25 2018-02-10 11:59:39 JO51XA > JO60HK 50.3 miles 142° 2018-02-10 11:59:39
DB0SON-3 2 2018-02-10 10:58:52 2018-02-10 10:59:57 JO50TB > JO50OJ 29.5 miles 319° 2018-02-10 10:58:52
DB0POB 9 2018-02-10 08:36:00 2018-02-10 09:02:39 JN58QX > JN58QP 23.3 miles 179° 2018-02-10 09:02:39
DB0LDS 5 2018-02-10 13:53:02 2018-02-10 14:26:58 JO62UN > JO62TH 16.7 miles 187° 2018-02-10 14:26:58
DF0WUN 1 2018-02-10 10:38:41 2018-02-10 10:38:41 JN59SR > JO50WB 25.8 miles 36° 2018-02-10 10:38:41
DL2BWO-13 5 2018-02-10 14:28:58 2018-02-10 14:36:28 JO62TO > JO62SQ 7.2 miles 331° 2018-02-10 14:28:58
DB0LOS 3 2018-02-10 14:07:51 2018-02-10 14:19:20 JO62TH > JO72AH 17.3 miles 87° 2018-02-10 14:07:51
DO3MBJ-10 2 2018-02-10 08:33:43 2018-02-10 08:35:32 JN58TN > JN58RM 5.7 miles 236° 2018-02-10 08:35:32
DG4MLA-10 7 2018-02-10 08:01:32 2018-02-10 08:21:53 JN58TI > JN58TG 6.2 miles 186° 2018-02-10 08:21:53
DG4NGM-10 2 2018-02-10 11:09:26 2018-02-10 11:10:22 JO50VE > JO50WF 5.7 miles 86° 2018-02-10 11:09:26
OE2XWR-10 3 2018-02-10 08:30:48 2018-02-10 08:51:05 JN58RT > JN67IE 126.5 miles 153° 2018-02-10 08:51:05
DC1MBB-10 4 2018-02-10 07:57:27 2018-02-10 08:00:49 JN58TF > JN58TE 1.4 miles 193° 2018-02-10 08:00:49
DB0ED 3 2018-02-04 10:21:34 2018-02-04 10:35:23 JN58VH > JN68AG 11.0 miles 102° 2018-02-04 10:35:23
DB0WOL 2 2018-02-10 14:45:31 2018-02-10 14:55:35 JO62VW > JO62XR 16.2 miles 157° 2018-02-10 14:55:35
DL1BWU 1 2018-02-10 14:49:33 2018-02-10 14:49:33 JO62UV > JO62US 9.3 miles 191° 2018-02-10 14:49:33
SP1KQR-10 1 2018-02-14 07:04:18 2018-02-14 07:04:18 JO74RD > JO74SE 3.6 miles 75° 2018-02-14 07:04:18
DB0ZOD 2 2018-02-10 14:20:11 2018-02-10 14:22:57 JO62VL > JO62RM 15.8 miles 286° 2018-02-10 14:20:11
DB0SOB 2 2018-02-10 08:43:09 2018-02-10 08:45:10 JN58RR > JN58ON 17.2 miles 233° 2018-02-10 08:45:10
DB0LUD 5 2018-02-10 13:46:34 2018-02-10 13:58:11 JO62MH > JO62PH 8.5 miles 83° 2018-02-10 13:46:34

Only position packets which were originated by the station are shown here. The range statistics show some extra long hops, because some digipeaters do not correctly add themselves to the digipeater path. Please check the raw packets.
About this site
This page shows real-time information collected from the Automatic Position Reporting System Internet network (APRS-IS). APRS is used by amateur (ham) radio operators to transmit real-time position information, weather data, telemetry and messages over the radio. A vehicle equipped with a GPS receiver, a VHF transmitter or HF transceiver and a small computer device called a tracker transmits it's location, speed and course in a small data packet, which is then received by a nearby iGate receiving site which forwards the packet on the Internet. Systems connected to the Internet can send information on the APRS-IS without a radio transmitter, or collect and display information transmitted anywhere in the world.
FAQ · Blog · Discussion group · Linking to aprs.fi · AIS sites · Service status · Database statistics · Advertising on aprs.fi · Technical details · API · Change log · Planned changes · Credits and thanks · Terms Of Service · iPhone/iPad APRS